Time;durP1;ratioP1;P1;durP2;ratioP2;P2;SDS_P1;SDS_P2;PMS_P1;PMS_P2;Temp;Humidity;BMP_temperature;BMP_pressure;BME280_temperature;BME280_humidity;BME280_pressure;Samples;Min_cycle;Max_cycle;Signal;HPM_P1;HPM_P2
2023/06/21 00:00:00;;;;;;;9.07;6.50;;;;;;;22.42;70.58;98691.44;4470830;32;20147;-66
2023/06/21 00:02:31;;;;;;;9.35;6.00;;;;;;;22.31;71.12;98695.63;4470897;32;20089;-66
2023/06/21 00:04:58;;;;;;;9.18;6.03;;;;;;;22.33;70.98;98689.03;4470796;32;20156;-66
2023/06/21 00:07:26;;;;;;;9.40;6.10;;;;;;;22.31;71.23;98690.28;4470693;32;20092;-66
2023/06/21 00:09:53;;;;;;;9.27;6.00;;;;;;;22.24;71.61;98686.78;4477154;32;20634;-66
2023/06/21 00:12:22;;;;;;;10.73;6.18;;;;;;;22.26;71.79;98682.87;4486347;31;20421;-66
2023/06/21 00:14:49;;;;;;;9.27;6.50;;;;;;;22.13;72.54;98681.13;4486059;31;20160;-66
2023/06/21 00:17:16;;;;;;;12.98;6.90;;;;;;;22.11;72.77;98688.50;4486224;32;20480;-66
2023/06/21 00:19:43;;;;;;;11.85;5.87;;;;;;;22.11;73.29;98677.84;4486219;31;20092;-66
2023/06/21 00:22:11;;;;;;;9.90;6.95;;;;;;;22.13;73.50;98683.81;4486167;32;20111;-65
2023/06/21 00:24:38;;;;;;;7.43;6.43;;;;;;;22.11;73.66;98677.84;4486095;31;20137;-66
2023/06/21 00:27:05;;;;;;;10.90;6.57;;;;;;;22.07;73.60;98676.63;4486393;31;20131;-66
2023/06/21 00:29:33;;;;;;;8.50;6.78;;;;;;;22.07;73.80;98675.81;4485958;31;20114;-66
2023/06/21 00:32:00;;;;;;;7.65;5.93;;;;;;;22.02;74.01;98672.97;4486001;31;20154;-66
2023/06/21 00:34:28;;;;;;;10.32;6.53;;;;;;;22.00;73.62;98675.03;4484738;32;20088;-66
2023/06/21 00:36:55;;;;;;;8.63;6.12;;;;;;;21.95;73.14;98673.00;4486051;31;20382;-66
2023/06/21 00:39:23;;;;;;;9.95;5.97;;;;;;;22.07;71.89;98676.63;4485925;31;20119;-66
2023/06/21 00:41:51;;;;;;;11.63;5.95;;;;;;;22.01;72.01;98680.16;4485910;32;20148;-66
2023/06/21 00:44:18;;;;;;;8.15;5.87;;;;;;;21.99;71.87;98687.56;4485938;31;20092;-66
2023/06/21 00:46:46;;;;;;;14.95;6.37;;;;;;;21.96;72.51;98686.12;4486058;31;20128;-65
2023/06/21 00:49:13;;;;;;;7.65;6.10;;;;;;;21.95;72.91;98689.00;4485913;31;20101;-66
2023/06/21 00:51:41;;;;;;;13.65;6.35;;;;;;;21.85;73.01;98684.13;4485905;31;20145;-66
2023/06/21 00:54:16;;;;;;;8.70;5.85;;;;;;;21.82;73.45;98687.22;4485719;32;20119;-66
2023/06/21 00:56:44;;;;;;;12.98;6.40;;;;;;;21.74;74.05;98693.62;4485986;31;20100;-66
2023/06/21 00:59:11;;;;;;;11.48;6.68;;;;;;;21.74;74.26;98695.47;4484658;32;20126;-65
2023/06/21 01:01:39;;;;;;;10.32;6.93;;;;;;;21.77;74.27;98690.53;4484546;32;20458;-66
2023/06/21 01:04:10;;;;;;;10.70;5.80;;;;;;;21.61;74.92;98689.16;4485678;31;20518;-65
2023/06/21 01:06:48;;;;;;;11.95;5.80;;;;;;;21.49;76.07;98690.81;4484723;32;20135;-66
2023/06/21 01:09:52;;;;;;;11.35;5.97;;;;;;;21.53;76.21;98676.06;4481950;32;20130;-66
2023/06/21 01:12:44;;;;;;;6.57;5.40;;;;;;;21.45;76.44;98679.75;4469212;32;20115;-66
2023/06/21 01:15:16;;;;;;;10.48;6.18;;;;;;;21.44;76.39;98686.09;4470008;32;20089;-66
2023/06/21 01:17:45;;;;;;;7.62;5.65;;;;;;;21.42;76.62;98692.66;4481793;32;20104;-66
2023/06/21 01:20:14;;;;;;;7.53;6.15;;;;;;;21.39;76.76;98693.09;4468685;32;20131;-66
2023/06/21 01:23:15;;;;;;;7.95;5.78;;;;;;;21.22;77.90;98687.38;4468847;32;20097;-66
2023/06/21 01:26:19;;;;;;;9.77;6.05;;;;;;;21.21;78.14;98693.72;4436395;32;20165;-66
2023/06/21 01:28:55;;;;;;;11.75;6.53;;;;;;;21.18;78.24;98683.50;4436581;32;20127;-66
2023/06/21 01:31:23;;;;;;;8.57;6.30;;;;;;;21.11;78.99;98685.38;4436318;32;20520;-66
2023/06/21 01:33:51;;;;;;;8.52;6.40;;;;;;;21.02;79.17;98685.56;4424101;32;20177;-66
2023/06/21 01:36:18;;;;;;;9.70;6.15;;;;;;;21.02;79.74;98676.78;4436199;32;20093;-65
2023/06/21 01:38:45;;;;;;;13.15;6.40;;;;;;;20.96;79.78;98681.06;4436594;32;21210;-66
2023/06/21 01:41:12;;;;;;;10.85;6.20;;;;;;;21.02;80.12;98682.09;4436209;32;20455;-65
2023/06/21 01:43:40;;;;;;;8.63;6.12;;;;;;;20.96;80.58;98682.94;4436282;32;20116;-66
2023/06/21 01:46:07;;;;;;;9.68;6.05;;;;;;;20.90;80.97;98673.91;4436235;32;20535;-65
2023/06/21 01:48:37;;;;;;;9.95;6.05;;;;;;;20.80;81.62;98678.84;4423823;32;20466;-66
2023/06/21 01:51:04;;;;;;;14.73;6.75;;;;;;;20.72;82.24;98680.66;4423444;32;20509;-66
2023/06/21 01:53:33;;;;;;;14.45;6.20;;;;;;;20.76;82.30;98678.44;4436475;32;20981;-66
2023/06/21 01:56:08;;;;;;;8.77;6.30;;;;;;;20.69;82.44;98680.28;4436117;32;20201;-65
2023/06/21 01:58:36;;;;;;;7.95;6.40;;;;;;;20.62;82.97;98696.22;4436450;32;20577;-66
2023/06/21 02:01:03;;;;;;;10.82;6.15;;;;;;;20.67;83.03;98699.13;4423640;32;20117;-66
2023/06/21 02:03:31;;;;;;;12.68;6.40;;;;;;;20.60;83.39;98703.56;4456761;32;20164;-65
2023/06/21 02:06:03;;;;;;;8.90;7.28;;;;;;;20.70;83.23;98698.69;4469725;32;20107;-66
2023/06/21 02:08:32;;;;;;;11.80;7.05;;;;;;;20.60;84.46;98690.25;4470150;32;20135;-66
2023/06/21 02:11:01;;;;;;;10.07;6.70;;;;;;;20.58;84.98;98702.16;4483276;32;20104;-66
2023/06/21 02:13:28;;;;;;;7.40;6.32;;;;;;;20.55;85.54;98700.72;4478019;31;20119;-65
2023/06/21 02:15:56;;;;;;;10.13;6.47;;;;;;;20.55;85.41;98703.38;4469042;32;20115;-66
2023/06/21 02:18:24;;;;;;;10.65;6.68;;;;;;;20.49;86.17;98706.84;4469666;32;20557;-66
2023/06/21 02:20:52;;;;;;;7.68;6.47;;;;;;;20.39;86.77;98705.41;4469517;32;20110;-66
2023/06/21 02:23:19;;;;;;;8.73;6.43;;;;;;;20.36;87.16;98697.84;4469693;32;20465;-66
2023/06/21 02:25:46;;;;;;;10.10;6.68;;;;;;;20.25;87.81;98703.72;4469728;32;20072;-66
2023/06/21 02:28:16;;;;;;;9.68;6.95;;;;;;;20.21;88.39;98705.16;4469948;32;20119;-65
2023/06/21 02:30:43;;;;;;;9.85;6.37;;;;;;;20.29;88.12;98698.84;4468270;32;20104;-66
2023/06/21 02:33:11;;;;;;;14.00;7.28;;;;;;;20.38;87.84;98701.09;4469533;32;20093;-65
2023/06/21 02:35:38;;;;;;;7.93;6.43;;;;;;;20.32;87.91;98696.59;4469673;32;20081;-65
2023/06/21 02:38:06;;;;;;;10.15;7.37;;;;;;;20.20;88.94;98690.22;4469535;32;20160;-66
2023/06/21 02:40:33;;;;;;;9.82;6.35;;;;;;;20.23;89.03;98688.97;4468152;32;20100;-66
2023/06/21 02:43:01;;;;;;;12.07;7.15;;;;;;;20.20;89.56;98691.03;4469569;32;20089;-66
2023/06/21 02:45:28;;;;;;;9.95;6.97;;;;;;;20.14;89.96;98696.34;4469508;32;20089;-66
2023/06/21 02:47:55;;;;;;;12.37;7.07;;;;;;;20.12;89.96;98690.41;4469633;32;20128;-65
2023/06/21 02:50:22;;;;;;;13.10;6.65;;;;;;;19.99;91.39;98686.69;4469589;32;20176;-66
2023/06/21 02:52:50;;;;;;;8.80;6.45;;;;;;;19.94;91.13;98691.78;4469485;32;20084;-65
2023/06/21 02:55:18;;;;;;;9.27;6.30;;;;;;;19.99;90.78;98692.00;4469282;32;20168;-65
2023/06/21 02:57:48;;;;;;;8.07;6.10;;;;;;;19.97;91.04;98693.22;4469359;32;20657;-65
2023/06/21 03:00:22;;;;;;;11.35;6.82;;;;;;;19.99;90.93;98699.97;4469439;32;20084;-66
2023/06/21 03:02:50;;;;;;;18.95;7.32;;;;;;;19.94;91.55;98694.44;4469620;32;20085;-65
2023/06/21 03:05:18;;;;;;;10.70;6.90;;;;;;;19.99;92.29;98691.19;4469381;32;20127;-65
2023/06/21 03:07:46;;;;;;;8.63;6.30;;;;;;;20.03;91.70;98693.25;4469297;32;20096;-66
2023/06/21 03:10:14;;;;;;;12.05;6.70;;;;;;;20.03;92.11;98685.28;4478061;32;20502;-66
2023/06/21 03:12:42;;;;;;;10.45;6.93;;;;;;;20.02;91.93;98688.94;4482355;31;20104;-66
2023/06/21 03:15:11;;;;;;;10.30;6.70;;;;;;;20.09;92.27;98682.81;4469329;32;20160;-66
2023/06/21 03:17:39;;;;;;;10.30;6.53;;;;;;;20.10;92.58;98684.47;4469467;32;20093;-65
2023/06/21 03:20:12;;;;;;;10.88;6.25;;;;;;;20.19;92.15;98696.56;4469445;32;20669;-66
2023/06/21 03:22:43;;;;;;;9.15;6.82;;;;;;;20.27;91.15;98704.34;4467750;32;20123;-65
2023/06/21 03:25:12;;;;;;;13.30;6.62;;;;;;;20.42;90.41;98706.00;4469161;32;20064;-66
2023/06/21 03:27:41;;;;;;;12.07;6.03;;;;;;;20.53;89.97;98705.41;4468994;32;20808;-66
2023/06/21 03:30:12;;;;;;;11.52;7.10;;;;;;;20.63;89.57;98697.84;4469146;32;20160;-66
2023/06/21 03:32:46;;;;;;;11.82;7.97;;;;;;;20.66;89.52;98694.00;4467509;32;20092;-65
2023/06/21 03:35:16;;;;;;;12.48;6.85;;;;;;;20.80;88.54;98694.81;4468901;32;20088;-66
2023/06/21 03:37:46;;;;;;;10.95;6.28;;;;;;;20.88;88.14;98684.78;4469061;32;20151;-65
2023/06/21 03:40:15;;;;;;;12.07;7.00;;;;;;;21.02;88.02;98688.25;4469183;32;20108;-66
2023/06/21 03:42:43;;;;;;;8.63;6.60;;;;;;;21.04;87.46;98688.84;4468859;32;20127;-65
2023/06/21 03:45:12;;;;;;;9.52;6.70;;;;;;;21.01;88.11;98691.91;4469207;32;20108;-66
2023/06/21 03:47:42;;;;;;;11.02;6.97;;;;;;;21.00;88.63;98692.97;4469147;32;20443;-65
2023/06/21 03:50:10;;;;;;;20.52;7.47;;;;;;;20.90;89.48;98692.56;4469109;32;20484;-66
2023/06/21 03:52:38;;;;;;;10.73;6.43;;;;;;;20.90;89.87;98692.56;4468930;32;20084;-65
2023/06/21 03:55:06;;;;;;;13.30;6.95;;;;;;;20.95;89.82;98690.09;4468747;32;20470;-65
2023/06/21 03:57:33;;;;;;;26.75;8.25;;;;;;;21.01;89.36;98689.25;4468483;32;20494;-64
2023/06/21 04:00:06;;;;;;;15.70;6.80;;;;;;;21.05;89.83;98682.50;4468658;32;20123;-65
2023/06/21 04:02:41;;;;;;;12.90;7.12;;;;;;;21.09;89.87;98688.25;4467881;32;20093;-65
2023/06/21 04:05:10;;;;;;;12.05;8.38;;;;;;;21.14;89.77;98684.97;4468205;32;20100;-66
2023/06/21 04:07:38;;;;;;;13.60;7.47;;;;;;;21.17;89.24;98689.87;4468501;32;20807;-65
2023/06/21 04:10:08;;;;;;;15.35;7.25;;;;;;;21.18;89.65;98697.66;4476490;32;20105;-65
2023/06/21 04:12:36;;;;;;;10.55;7.45;;;;;;;21.27;89.37;98699.06;4482463;31;20802;-65
2023/06/21 04:15:05;;;;;;;10.80;7.15;;;;;;;21.32;89.19;98705.59;4468763;32;20135;-65
2023/06/21 04:17:33;;;;;;;12.90;7.07;;;;;;;21.45;88.61;98709.06;4468081;32;20913;-65
2023/06/21 04:20:07;;;;;;;8.60;7.12;;;;;;;21.56;88.15;98709.47;4468161;32;20081;-66
2023/06/21 04:22:34;;;;;;;17.80;7.55;;;;;;;21.72;87.52;98730.34;4469174;32;20085;-65
2023/06/21 04:25:03;;;;;;;14.32;7.30;;;;;;;21.86;87.08;98727.63;4483912;31;20119;-65
2023/06/21 04:27:32;;;;;;;9.27;6.82;;;;;;;21.99;87.74;98738.25;4483840;31;20100;-66
2023/06/21 04:29:59;;;;;;;8.88;6.80;;;;;;;22.22;85.52;98735.03;4483739;31;20097;-65
2023/06/21 04:32:32;;;;;;;20.83;6.90;;;;;;;22.28;84.22;98744.06;4483483;31;20097;-65
2023/06/21 04:35:01;;;;;;;11.00;6.78;;;;;;;22.41;84.36;98748.53;4483465;32;20077;-66
2023/06/21 04:37:28;;;;;;;13.93;6.87;;;;;;;22.55;84.91;98755.41;4483451;31;20404;-65
2023/06/21 04:39:56;;;;;;;19.48;7.40;;;;;;;22.73;82.50;98764.56;4484275;31;20084;-66
2023/06/21 04:42:44;;;;;;;8.57;6.60;;;;;;;22.84;83.23;98761.97;4485967;31;20118;-66
2023/06/21 04:45:16;;;;;;;10.00;7.05;;;;;;;23.08;81.81;98764.88;4486058;31;20564;-66
2023/06/21 04:47:46;;;;;;;10.23;6.65;;;;;;;23.32;82.39;98765.13;4485877;31;20147;-66
2023/06/21 04:50:15;;;;;;;18.15;7.78;;;;;;;23.32;82.07;98757.13;4486013;31;20424;-66
2023/06/21 04:52:49;;;;;;;14.95;6.93;;;;;;;23.46;81.65;98750.59;4486022;31;20080;-66
2023/06/21 04:55:18;;;;;;;11.48;7.35;;;;;;;23.62;80.56;98751.03;4485692;31;20088;-66
2023/06/21 04:57:47;;;;;;;54.17;10.38;;;;;;;23.81;78.99;98747.31;4485802;31;20096;-66
2023/06/21 05:00:15;;;;;;;17.37;7.40;;;;;;;24.01;78.82;98746.28;4486108;31;20152;-66
2023/06/21 05:02:42;;;;;;;18.65;9.93;;;;;;;24.11;76.04;98748.44;4485576;31;20108;-66
2023/06/21 05:05:11;;;;;;;9.48;6.78;;;;;;;24.05;74.95;98737.59;4482928;31;20128;-66
2023/06/21 05:07:39;;;;;;;8.93;6.70;;;;;;;24.05;75.01;98745.63;4484282;31;20108;-66
2023/06/21 05:10:08;;;;;;;8.23;6.62;;;;;;;23.97;72.57;98734.41;4481884;31;20085;-65
2023/06/21 05:12:35;;;;;;;9.05;6.78;;;;;;;23.82;73.57;98735.59;4482026;31;20862;-66
2023/06/21 05:15:05;;;;;;;13.13;6.25;;;;;;;23.98;73.99;98738.72;4472766;32;20115;-66
2023/06/21 05:17:33;;;;;;;10.82;6.45;;;;;;;24.13;73.32;98744.50;4479537;32;20495;-66
2023/06/21 05:20:04;;;;;;;9.00;7.03;;;;;;;24.08;75.19;98747.84;4483693;31;20449;-66
2023/06/21 05:22:33;;;;;;;11.00;6.57;;;;;;;24.13;74.87;98749.03;4482438;31;20517;-65
2023/06/21 05:25:02;;;;;;;14.52;7.18;;;;;;;24.23;73.14;98747.44;4484678;31;20131;-66
2023/06/21 05:27:32;;;;;;;19.05;7.22;;;;;;;24.24;73.60;98748.28;4483850;31;20111;-66
2023/06/21 05:30:00;;;;;;;19.15;7.50;;;;;;;24.43;73.60;98757.88;4484556;32;20084;-66
2023/06/21 05:32:27;;;;;;;18.85;8.10;;;;;;;24.70;74.34;98759.41;4484488;31;20096;-66
2023/06/21 05:34:54;;;;;;;25.20;7.47;;;;;;;24.84;71.42;98762.69;4484922;32;20107;-65
2023/06/21 05:37:22;;;;;;;15.13;6.68;;;;;;;25.01;72.65;98760.94;4482729;32;20123;-66
2023/06/21 05:39:50;;;;;;;14.25;7.40;;;;;;;24.97;70.26;98757.13;4485328;31;20161;-65
2023/06/21 05:42:18;;;;;;;12.57;7.15;;;;;;;25.00;70.04;98766.53;4480824;31;20851;-65
2023/06/21 05:44:45;;;;;;;10.43;7.00;;;;;;;25.04;69.80;98763.19;4469561;32;20112;-65
2023/06/21 05:47:14;;;;;;;10.35;7.93;;;;;;;25.00;69.92;98763.84;4472265;32;20104;-65
2023/06/21 05:49:41;;;;;;;23.05;8.13;;;;;;;25.02;69.09;98762.59;4471972;31;20446;-66
2023/06/21 05:52:08;;;;;;;32.15;7.62;;;;;;;25.30;71.40;98767.31;4473466;32;20126;-66
2023/06/21 05:54:41;;;;;;;44.40;8.35;;;;;;;25.52;69.73;98753.28;4477281;32;20101;-66
2023/06/21 05:57:09;;;;;;;29.07;8.10;;;;;;;25.69;69.45;98758.75;4473535;32;20100;-65
2023/06/21 05:59:36;;;;;;;11.30;7.35;;;;;;;25.66;68.49;98768.09;4476078;32;20096;-66
2023/06/21 06:02:05;;;;;;;12.35;7.15;;;;;;;25.47;69.97;98771.97;4483261;31;20096;-66
2023/06/21 06:04:33;;;;;;;21.75;7.47;;;;;;;25.56;71.25;98762.50;4484589;32;20164;-66
2023/06/21 06:07:00;;;;;;;12.90;8.15;;;;;;;25.73;69.80;98765.28;4484879;31;20119;-66
2023/06/21 06:09:27;;;;;;;22.20;7.90;;;;;;;26.12;69.50;98762.06;4481183;31;20157;-66
2023/06/21 06:11:56;;;;;;;12.45;7.43;;;;;;;26.18;67.37;98763.78;4464561;32;20527;-66
2023/06/21 06:14:24;;;;;;;24.35;7.07;;;;;;;25.82;66.38;98766.53;4469543;32;20172;-66
2023/06/21 06:16:51;;;;;;;15.43;7.28;;;;;;;25.96;66.97;98764.41;4467524;32;20100;-66
2023/06/21 06:19:18;;;;;;;11.02;7.95;;;;;;;26.23;67.92;98758.50;4466840;32;20474;-66
2023/06/21 06:21:47;;;;;;;26.90;7.47;;;;;;;26.20;65.29;98751.75;4459775;32;20827;-66
2023/06/21 06:24:14;;;;;;;21.58;7.62;;;;;;;26.37;67.98;98757.19;4466524;32;20093;-66
2023/06/21 06:26:41;;;;;;;17.30;6.82;;;;;;;26.26;66.65;98749.97;4469413;32;20158;-66
2023/06/21 06:29:08;;;;;;;29.30;8.15;;;;;;;26.31;66.66;98754.62;4469331;32;20096;-66
2023/06/21 06:31:36;;;;;;;12.60;7.12;;;;;;;26.47;67.11;98750.34;4473451;32;20224;-65
2023/06/21 06:34:03;;;;;;;11.77;7.37;;;;;;;26.64;66.15;98743.13;4469442;31;20445;-66
2023/06/21 06:36:30;;;;;;;11.55;7.03;;;;;;;26.71;65.55;98751.87;4468229;32;20096;-66
2023/06/21 06:38:57;;;;;;;25.10;8.60;;;;;;;26.89;64.31;98750.84;4473728;31;20162;-66
2023/06/21 06:41:24;;;;;;;13.82;8.02;;;;;;;26.95;63.83;98756.28;4467151;32;20116;-66
2023/06/21 06:43:52;;;;;;;13.20;7.50;;;;;;;27.01;62.40;98761.50;4472316;32;20128;-66
2023/06/21 06:46:19;;;;;;;33.85;8.05;;;;;;;26.84;63.79;98758.78;4468173;32;20119;-66
2023/06/21 06:48:47;;;;;;;14.38;7.95;;;;;;;26.92;65.70;98753.03;4474002;31;20480;-66
2023/06/21 06:51:14;;;;;;;10.07;7.50;;;;;;;27.12;66.18;98758.94;4474190;32;20119;-66
2023/06/21 06:53:42;;;;;;;11.80;7.68;;;;;;;27.12;63.38;98762.47;4473263;31;20080;-66
2023/06/21 06:56:09;;;;;;;11.75;8.00;;;;;;;27.33;64.84;98765.47;4474903;32;20118;-65
2023/06/21 06:58:36;;;;;;;20.52;9.48;;;;;;;27.37;62.10;98762.06;4470323;32;20132;-65
2023/06/21 07:01:05;;;;;;;17.92;7.85;;;;;;;27.24;62.92;98767.78;4468721;32;20138;-66
2023/06/21 07:03:33;;;;;;;14.73;7.78;;;;;;;27.21;63.75;98762.88;4472947;32;20104;-66
2023/06/21 07:06:00;;;;;;;13.68;8.10;;;;;;;27.46;63.13;98770.53;4467423;32;20154;-66
2023/06/21 07:08:27;;;;;;;11.60;7.50;;;;;;;27.36;61.45;98778.44;4467815;32;20116;-66
2023/06/21 07:10:55;;;;;;;12.18;7.70;;;;;;;27.60;62.48;98776.34;4468688;32;20120;-66
2023/06/21 07:13:23;;;;;;;11.27;8.10;;;;;;;27.78;64.13;98773.41;4469475;31;20104;-66
2023/06/21 07:15:51;;;;;;;14.50;7.97;;;;;;;28.03;59.60;98782.88;4466925;32;20123;-66
2023/06/21 07:18:18;;;;;;;17.50;9.02;;;;;;;28.10;60.68;98786.19;4470811;32;20096;-66
2023/06/21 07:20:45;;;;;;;15.93;8.48;;;;;;;28.12;59.05;98784.06;4471614;32;20148;-66
2023/06/21 07:23:12;;;;;;;12.68;8.38;;;;;;;28.13;57.04;98774.91;4467805;32;20136;-66
2023/06/21 07:25:40;;;;;;;13.88;8.13;;;;;;;28.15;58.33;98770.06;4469389;31;20096;-65
2023/06/21 07:28:07;;;;;;;10.35;8.05;;;;;;;28.22;61.17;98769.06;4465101;32;20097;-66
2023/06/21 07:30:34;;;;;;;12.00;8.02;;;;;;;28.38;58.80;98768.16;4465297;32;20119;-66
2023/06/21 07:33:03;;;;;;;18.60;8.90;;;;;;;28.42;60.64;98769.28;4465905;32;20089;-66
2023/06/21 07:35:30;;;;;;;37.30;10.05;;;;;;;28.35;57.72;98767.88;4468840;32;20143;-66
2023/06/21 07:37:57;;;;;;;10.70;8.00;;;;;;;28.38;58.51;98767.38;4469277;32;20084;-66
2023/06/21 07:40:25;;;;;;;13.95;8.23;;;;;;;28.59;58.32;98771.06;4471187;32;20115;-66
2023/06/21 07:42:52;;;;;;;16.05;8.93;;;;;;;28.63;62.07;98767.63;4471371;32;20081;-66
2023/06/21 07:45:19;;;;;;;13.18;8.85;;;;;;;28.65;61.51;98764.69;4471081;32;20136;-66
2023/06/21 07:47:48;;;;;;;18.92;8.70;;;;;;;28.76;58.26;98754.81;4469339;32;20093;-66
2023/06/21 07:50:15;;;;;;;17.67;9.55;;;;;;;28.74;57.96;98754.25;4464487;31;20135;-66
2023/06/21 07:52:49;;;;;;;19.25;9.55;;;;;;;28.81;58.51;98746.75;4468411;32;20115;-66
2023/06/21 07:55:17;;;;;;;15.15;9.25;;;;;;;28.84;59.26;98738.97;4475627;31;20103;-66
2023/06/21 07:57:44;;;;;;;15.27;9.73;;;;;;;28.97;60.16;98761.19;4468182;32;20135;-66
2023/06/21 08:00:12;;;;;;;19.10;10.05;;;;;;;28.83;59.72;98764.31;4465918;32;20375;-66
2023/06/21 08:02:44;;;;;;;14.95;9.57;;;;;;;29.08;58.12;98768.25;4465731;32;20119;-66
2023/06/21 08:05:13;;;;;;;15.25;9.48;;;;;;;29.37;56.97;98770.62;4469090;32;20108;-66
2023/06/21 08:07:41;;;;;;;17.33;9.32;;;;;;;29.14;55.95;98772.63;4466453;32;20164;-66
2023/06/21 08:10:09;;;;;;;21.73;9.35;;;;;;;29.31;55.99;98780.63;4471872;32;20104;-66
2023/06/21 08:12:36;;;;;;;16.05;9.57;;;;;;;29.91;55.58;98792.00;4471354;32;20131;-66
2023/06/21 08:15:05;;;;;;;14.82;9.38;;;;;;;30.27;56.59;98794.84;4470411;31;20108;-66
2023/06/21 08:17:32;;;;;;;13.45;9.35;;;;;;;30.67;53.98;98791.72;4474083;32;20124;-66
2023/06/21 08:20:00;;;;;;;16.65;10.05;;;;;;;30.69;53.17;98789.53;4473309;32;20123;-65
2023/06/21 08:22:27;;;;;;;20.10;9.32;;;;;;;30.76;51.61;98798.22;4473611;31;20120;-66
2023/06/21 08:24:56;;;;;;;12.05;9.15;;;;;;;30.93;57.08;98806.06;4469072;32;20650;-66
2023/06/21 08:27:23;;;;;;;18.45;9.25;;;;;;;30.88;55.13;98809.56;4472392;32;20093;-66
2023/06/21 08:29:51;;;;;;;17.73;10.57;;;;;;;30.60;56.29;98811.72;4467727;32;20214;-66
2023/06/21 08:32:19;;;;;;;18.00;9.80;;;;;;;30.34;56.74;98815.41;4469580;32;20140;-66
2023/06/21 08:34:47;;;;;;;19.40;9.57;;;;;;;30.16;58.14;98814.81;4473429;31;20207;-66
2023/06/21 08:37:14;;;;;;;17.67;9.60;;;;;;;30.04;58.80;98819.63;4471928;32;20641;-66
2023/06/21 08:39:41;;;;;;;18.15;8.57;;;;;;;30.31;56.52;98824.03;4474520;32;20128;-66
2023/06/21 08:42:09;;;;;;;14.57;9.40;;;;;;;30.46;55.94;98828.72;4473409;32;20139;-66
2023/06/21 08:44:37;;;;;;;15.43;9.05;;;;;;;30.69;55.83;98828.22;4472587;32;20128;-66
2023/06/21 08:47:04;;;;;;;19.90;11.00;;;;;;;30.75;55.69;98815.50;4467897;32;20122;-66
2023/06/21 08:49:34;;;;;;;11.70;8.98;;;;;;;30.94;56.15;98823.91;4471586;32;21651;-66
2023/06/21 08:52:03;;;;;;;19.10;8.98;;;;;;;31.11;56.09;98834.50;4461942;32;20096;-66
2023/06/21 08:54:30;;;;;;;19.52;10.00;;;;;;;31.15;55.04;98835.59;4470091;32;21893;-66
2023/06/21 08:57:20;;;;;;;16.65;8.98;;;;;;;31.31;54.63;98834.50;4472707;32;20767;-66
2023/06/21 08:59:51;;;;;;;19.92;9.90;;;;;;;31.19;54.54;98839.38;4467751;32;20555;-66
2023/06/21 09:02:55;;;;;;;15.68;10.10;;;;;;;30.79;53.95;98844.44;4468984;32;20410;-66
2023/06/21 09:05:29;;;;;;;29.37;11.07;;;;;;;30.97;55.70;98839.62;4453503;32;20136;-66
2023/06/21 09:07:58;;;;;;;16.02;9.52;;;;;;;30.70;56.08;98839.84;4470923;32;20936;-66
2023/06/21 09:10:28;;;;;;;14.38;9.05;;;;;;;30.37;56.99;98837.31;4474553;32;20147;-66
2023/06/21 09:12:57;;;;;;;17.95;9.57;;;;;;;30.49;57.68;98837.09;4472980;32;20084;-66
2023/06/21 09:15:24;;;;;;;23.83;9.45;;;;;;;30.73;56.64;98839.31;4472962;32;20117;-66
2023/06/21 09:17:56;;;;;;;20.12;9.93;;;;;;;31.00;59.19;98838.31;4471519;32;20114;-66
2023/06/21 09:20:28;;;;;;;13.57;9.57;;;;;;;31.08;58.96;98841.25;4470063;32;20112;-66
2023/06/21 09:22:59;;;;;;;18.50;10.38;;;;;;;30.93;59.27;98839.34;4469236;32;20102;-66
2023/06/21 09:25:28;;;;;;;;;;;;;;;30.92;56.56;98835.00;4467410;32;20149;-66
2023/06/21 09:27:56;;;;;;;12.82;9.52;;;;;;;30.66;55.77;98833.34;4470916;32;20004;-66
2023/06/21 09:30:24;;;;;;;19.80;10.55;;;;;;;30.51;57.76;98836.81;4473607;32;20096;-66
2023/06/21 09:32:54;;;;;;;15.88;10.55;;;;;;;30.10;59.92;98851.00;4471231;32;20127;-66
2023/06/21 09:35:22;;;;;;;17.02;9.85;;;;;;;29.75;60.59;98838.88;4472658;32;20117;-67
2023/06/21 09:37:49;;;;;;;23.12;10.65;;;;;;;29.76;61.97;98848.63;4464990;32;20453;-66
2023/06/21 09:40:17;;;;;;;15.50;9.65;;;;;;;29.78;62.06;98848.38;4472146;32;21214;-66
2023/06/21 09:42:45;;;;;;;11.75;9.60;;;;;;;30.19;61.07;98844.00;4468755;32;20153;-66
2023/06/21 09:45:17;;;;;;;14.73;10.18;;;;;;;30.43;63.44;98852.50;4466880;32;20100;-66
2023/06/21 09:47:45;;;;;;;16.50;9.90;;;;;;;30.56;58.45;98859.28;4469607;32;20116;-66
2023/06/21 09:50:12;;;;;;;12.98;10.27;;;;;;;30.62;58.01;98849.31;4470494;32;20470;-66
2023/06/21 09:52:45;;;;;;;16.58;10.52;;;;;;;30.67;56.97;98859.31;4475849;32;20454;-66
2023/06/21 09:55:16;;;;;;;15.00;9.88;;;;;;;30.85;57.86;98861.50;4470046;31;20474;-66
2023/06/21 09:57:44;;;;;;;18.05;10.40;;;;;;;30.97;57.07;98864.75;4467206;32;20119;-66
2023/06/21 10:00:12;;;;;;;13.57;10.70;;;;;;;31.04;56.98;98861.00;4467450;32;20156;-66
2023/06/21 10:02:42;;;;;;;20.25;11.88;;;;;;;31.24;56.83;98855.63;4480101;31;20088;-66
2023/06/21 10:05:16;;;;;;;13.02;10.63;;;;;;;31.34;56.21;98859.41;4483615;31;20124;-66
2023/06/21 10:07:47;;;;;;;17.85;10.57;;;;;;;31.44;58.68;98854.78;4479965;31;20510;-66
2023/06/21 10:10:14;;;;;;;20.58;11.35;;;;;;;31.54;57.62;98856.69;4482673;32;20108;-66
2023/06/21 10:12:52;;;;;;;19.58;11.32;;;;;;;31.63;58.33;98846.94;4482997;31;20115;-66
2023/06/21 10:15:23;;;;;;;14.70;10.95;;;;;;;31.35;57.29;98852.91;4469375;31;20437;-66
2023/06/21 10:17:53;;;;;;;22.05;11.68;;;;;;;31.44;61.10;98851.28;4468478;32;20155;-66
2023/06/21 10:20:24;;;;;;;14.40;11.25;;;;;;;31.42;58.54;98861.56;4481500;32;20104;-66
2023/06/21 10:22:53;;;;;;;17.02;10.23;;;;;;;31.37;59.38;98858.84;4473380;32;20097;-66
2023/06/21 10:25:20;;;;;;;18.27;10.63;;;;;;;31.55;58.59;98849.38;4481656;32;20097;-66
2023/06/21 10:27:50;;;;;;;16.08;10.02;;;;;;;31.66;58.78;98851.81;4484645;31;20199;-66
2023/06/21 10:30:19;;;;;;;14.93;9.93;;;;;;;31.80;58.97;98852.03;4476423;32;20151;-66
2023/06/21 10:32:47;;;;;;;21.55;10.95;;;;;;;31.90;57.64;98856.63;4480520;32;20183;-65
2023/06/21 10:35:16;;;;;;;18.33;10.68;;;;;;;31.69;57.10;98857.75;4480193;32;20165;-66
2023/06/21 10:37:48;;;;;;;15.88;10.50;;;;;;;31.39;58.98;98862.12;4479298;32;20509;-65
2023/06/21 10:40:17;;;;;;;14.45;10.88;;;;;;;31.16;58.61;98864.28;4475017;32;20118;-66
2023/06/21 10:42:45;;;;;;;11.80;10.38;;;;;;;31.27;56.93;98865.91;4467432;32;20481;-66
2023/06/21 10:45:13;;;;;;;17.70;10.15;;;;;;;31.61;56.26;98859.97;4473279;32;20096;-66
2023/06/21 10:47:40;;;;;;;13.70;10.20;;;;;;;31.69;57.04;98855.88;4482137;31;20126;-66
2023/06/21 10:50:09;;;;;;;16.52;10.45;;;;;;;31.72;56.86;98859.91;4478839;31;20114;-66
2023/06/21 10:52:37;;;;;;;15.30;10.68;;;;;;;31.35;57.74;98861.03;4475555;32;20096;-65
2023/06/21 10:55:05;;;;;;;15.85;10.38;;;;;;;31.47;57.08;98864.25;4470850;32;20119;-65
2023/06/21 10:57:34;;;;;;;13.62;11.30;;;;;;;31.65;58.36;98866.44;4475143;31;20167;-65
2023/06/21 11:00:06;;;;;;;13.55;10.90;;;;;;;31.99;58.74;98867.69;4477925;32;20121;-65
2023/06/21 11:02:34;;;;;;;13.40;10.63;;;;;;;31.71;56.47;98869.16;4461442;32;20157;-64
2023/06/21 11:05:19;;;;;;;16.60;10.75;;;;;;;31.66;55.65;98868.06;4472235;32;20165;-65
2023/06/21 11:07:50;;;;;;;13.75;10.20;;;;;;;31.82;57.30;98865.31;4475798;32;20116;-65
2023/06/21 11:10:21;;;;;;;16.30;10.38;;;;;;;32.29;56.70;98864.09;4474794;32;20245;-65
2023/06/21 11:12:54;;;;;;;17.23;11.07;;;;;;;32.83;55.82;98861.66;4468845;32;20097;-65
2023/06/21 11:15:22;;;;;;;;;;;;;;;32.49;54.36;98867.78;4475781;32;20909;-65
2023/06/21 11:18:10;;;;;;;19.23;11.00;;;;;;;32.51;53.45;98865.63;4482361;32;20005;-65
2023/06/21 11:20:45;;;;;;;14.43;10.35;;;;;;;32.02;56.46;98857.13;4474715;31;20096;-65
2023/06/21 11:23:21;;;;;;;14.73;9.90;;;;;;;31.68;56.61;98856.94;4481450;32;20145;-64
2023/06/21 11:25:50;;;;;;;16.20;10.20;;;;;;;31.56;58.52;98859.94;4483109;31;20135;-64
2023/06/21 11:28:18;;;;;;;11.38;9.48;;;;;;;31.90;59.40;98850.37;4480294;31;20126;-65
2023/06/21 11:31:05;;;;;;;15.52;10.38;;;;;;;32.05;54.76;98853.03;4481689;32;20534;-64
2023/06/21 11:33:55;;;;;;;13.52;10.25;;;;;;;31.99;54.29;98860.41;4470167;31;20454;-65
2023/06/21 11:36:31;;;;;;;11.05;9.48;;;;;;;32.40;56.46;98847.78;4470928;32;20135;-65